sensor_id;sensor_type;location;lat;lon;timestamp;pressure;altitude;pressure_sealevel;temperature;humidity
45523;BME280;31254;51.680;5.394;2022-08-03T00:00:22;101528.19;;;22.13;68.97
45523;BME280;31254;51.680;5.394;2022-08-03T00:02:49;101539.06;;;22.14;69.36
45523;BME280;31254;51.680;5.394;2022-08-03T00:05:16;101528.16;;;22.06;69.05
45523;BME280;31254;51.680;5.394;2022-08-03T00:07:43;101541.00;;;22.07;69.58
45523;BME280;31254;51.680;5.394;2022-08-03T00:10:10;101533.06;;;22.04;69.72
45523;BME280;31254;51.680;5.394;2022-08-03T00:12:37;101540.97;;;22.00;69.65
45523;BME280;31254;51.680;5.394;2022-08-03T00:15:07;101527.50;;;21.97;69.90
45523;BME280;31254;51.680;5.394;2022-08-03T00:17:41;101527.69;;;21.89;69.88
45523;BME280;31254;51.680;5.394;2022-08-03T00:20:20;101535.81;;;21.90;69.89
45523;BME280;31254;51.680;5.394;2022-08-03T00:22:47;101536.03;;;21.89;70.24
45523;BME280;31254;51.680;5.394;2022-08-03T00:25:14;101530.88;;;21.86;70.30
45523;BME280;31254;51.680;5.394;2022-08-03T00:27:40;101530.44;;;21.82;70.48
45523;BME280;31254;51.680;5.394;2022-08-03T00:30:07;101530.88;;;21.79;70.95
45523;BME280;31254;51.680;5.394;2022-08-03T00:32:37;101521.03;;;21.77;70.68
45523;BME280;31254;51.680;5.394;2022-08-03T00:35:10;101531.69;;;21.73;70.74
45523;BME280;31254;51.680;5.394;2022-08-03T00:37:57;101523.53;;;21.65;70.98
45523;BME280;31254;51.680;5.394;2022-08-03T00:40:26;101512.41;;;21.58;71.32
45523;BME280;31254;51.680;5.394;2022-08-03T00:42:55;101527.56;;;21.62;71.01
45523;BME280;31254;51.680;5.394;2022-08-03T00:45:35;101524.59;;;21.64;71.14
45523;BME280;31254;51.680;5.394;2022-08-03T00:48:06;101517.97;;;21.58;71.09
45523;BME280;31254;51.680;5.394;2022-08-03T00:50:53;101517.06;;;21.51;71.44
45523;BME280;31254;51.680;5.394;2022-08-03T00:53:22;101515.81;;;21.53;71.23
45523;BME280;31254;51.680;5.394;2022-08-03T00:55:49;101481.50;;;21.33;71.96
45523;BME280;31254;51.680;5.394;2022-08-03T00:58:16;101508.94;;;21.49;71.68
45523;BME280;31254;51.680;5.394;2022-08-03T01:00:46;101508.25;;;21.47;72.31
45523;BME280;31254;51.680;5.394;2022-08-03T01:03:13;101508.69;;;21.44;72.10
45523;BME280;31254;51.680;5.394;2022-08-03T01:05:57;101493.72;;;21.39;72.02
45523;BME280;31254;51.680;5.394;2022-08-03T01:08:47;101504.63;;;21.40;72.68
45523;BME280;31254;51.680;5.394;2022-08-03T01:14:37;101502.22;;;21.30;72.97
45523;BME280;31254;51.680;5.394;2022-08-03T01:17:19;101504.13;;;21.30;73.15
45523;BME280;31254;51.680;5.394;2022-08-03T01:19:53;101504.97;;;21.24;73.10
45523;BME280;31254;51.680;5.394;2022-08-03T01:31:43;101496.34;;;21.12;73.40
45523;BME280;31254;51.680;5.394;2022-08-03T01:34:35;101495.69;;;21.10;73.83
45523;BME280;31254;51.680;5.394;2022-08-03T01:37:08;101495.91;;;21.08;74.11
45523;BME280;31254;51.680;5.394;2022-08-03T01:39:38;101496.75;;;21.09;74.14
45523;BME280;31254;51.680;5.394;2022-08-03T01:42:07;101491.16;;;21.02;74.42
45523;BME280;31254;51.680;5.394;2022-08-03T01:44:40;101500.16;;;21.04;74.78
45523;BME280;31254;51.680;5.394;2022-08-03T01:47:07;101493.28;;;21.00;74.71
45523;BME280;31254;51.680;5.394;2022-08-03T01:49:38;101482.16;;;20.93;74.83
45523;BME280;31254;51.680;5.394;2022-08-03T01:52:06;101494.09;;;20.94;74.73
45523;BME280;31254;51.680;5.394;2022-08-03T01:54:41;101457.72;;;20.75;75.04
45523;BME280;31254;51.680;5.394;2022-08-03T01:57:12;101484.28;;;20.91;75.33
45523;BME280;31254;51.680;5.394;2022-08-03T01:59:40;101491.09;;;20.89;75.68
45523;BME280;31254;51.680;5.394;2022-08-03T02:02:11;101492.81;;;20.90;75.50
45523;BME280;31254;51.680;5.394;2022-08-03T02:05:03;101492.34;;;20.86;75.42
45523;BME280;31254;51.680;5.394;2022-08-03T02:07:36;101490.00;;;20.83;75.48
45523;BME280;31254;51.680;5.394;2022-08-03T02:10:06;101475.00;;;20.77;75.70
45523;BME280;31254;51.680;5.394;2022-08-03T02:12:33;101480.34;;;20.79;76.04
45523;BME280;31254;51.680;5.394;2022-08-03T02:15:04;101474.97;;;20.71;75.87
45523;BME280;31254;51.680;5.394;2022-08-03T02:17:35;101480.75;;;20.76;76.17
45523;BME280;31254;51.680;5.394;2022-08-03T02:20:07;101477.53;;;20.72;76.25
45523;BME280;31254;51.680;5.394;2022-08-03T02:22:34;101480.72;;;20.69;76.43
45523;BME280;31254;51.680;5.394;2022-08-03T02:25:03;101481.75;;;20.68;76.54
45523;BME280;31254;51.680;5.394;2022-08-03T02:27:33;101487.31;;;20.68;76.34
45523;BME280;31254;51.680;5.394;2022-08-03T02:30:11;101475.94;;;20.63;76.87
45523;BME280;31254;51.680;5.394;2022-08-03T02:32:42;101465.72;;;20.63;76.63
45523;BME280;31254;51.680;5.394;2022-08-03T02:35:12;101478.06;;;20.61;76.74
45523;BME280;31254;51.680;5.394;2022-08-03T02:37:50;101481.88;;;20.60;77.25
45523;BME280;31254;51.680;5.394;2022-08-03T02:40:29;101475.88;;;20.56;76.92
45523;BME280;31254;51.680;5.394;2022-08-03T02:43:03;101472.66;;;20.53;76.87
45523;BME280;31254;51.680;5.394;2022-08-03T02:45:35;101480.09;;;20.52;77.51
45523;BME280;31254;51.680;5.394;2022-08-03T02:48:03;101477.06;;;20.47;77.26
45523;BME280;31254;51.680;5.394;2022-08-03T02:50:33;101473.47;;;20.46;77.32
45523;BME280;31254;51.680;5.394;2022-08-03T02:53:01;101475.59;;;20.44;77.62
45523;BME280;31254;51.680;5.394;2022-08-03T02:55:29;101467.03;;;20.39;77.38
45523;BME280;31254;51.680;5.394;2022-08-03T02:57:57;101469.38;;;20.42;77.84
45523;BME280;31254;51.680;5.394;2022-08-03T03:00:28;101473.22;;;20.41;78.01
45523;BME280;31254;51.680;5.394;2022-08-03T03:02:57;101475.13;;;20.41;78.01
45523;BME280;31254;51.680;5.394;2022-08-03T03:05:26;101468.66;;;20.34;78.02
45523;BME280;31254;51.680;5.394;2022-08-03T03:08:14;101464.78;;;20.28;78.14
45523;BME280;31254;51.680;5.394;2022-08-03T03:10:45;101463.72;;;20.29;78.23
45523;BME280;31254;51.680;5.394;2022-08-03T03:13:14;101450.84;;;20.21;78.19
45523;BME280;31254;51.680;5.394;2022-08-03T03:15:44;101464.16;;;20.33;78.19
45523;BME280;31254;51.680;5.394;2022-08-03T03:18:15;101441.19;;;20.11;78.60
45523;BME280;31254;51.680;5.394;2022-08-03T03:20:50;101456.88;;;20.25;78.51
45523;BME280;31254;51.680;5.394;2022-08-03T03:23:20;101462.56;;;20.17;78.74
45523;BME280;31254;51.680;5.394;2022-08-03T03:25:50;101468.75;;;20.19;78.70
45523;BME280;31254;51.680;5.394;2022-08-03T03:28:17;101469.78;;;20.18;78.83
45523;BME280;31254;51.680;5.394;2022-08-03T03:30:44;101467.41;;;20.15;78.84
45523;BME280;31254;51.680;5.394;2022-08-03T03:33:19;101438.69;;;19.94;78.97
45523;BME280;31254;51.680;5.394;2022-08-03T03:35:47;101464.38;;;20.09;79.07
45523;BME280;31254;51.680;5.394;2022-08-03T03:38:13;101460.13;;;20.07;79.22
45523;BME280;31254;51.680;5.394;2022-08-03T03:40:40;101457.53;;;20.05;79.26
45523;BME280;31254;51.680;5.394;2022-08-03T03:43:08;101468.63;;;20.05;79.49
45523;BME280;31254;51.680;5.394;2022-08-03T03:45:36;101454.91;;;19.97;79.70
45523;BME280;31254;51.680;5.394;2022-08-03T03:48:04;101453.19;;;19.96;79.46
45523;BME280;31254;51.680;5.394;2022-08-03T03:50:31;101437.75;;;19.87;79.43
45523;BME280;31254;51.680;5.394;2022-08-03T03:52:58;101457.44;;;19.99;79.63
45523;BME280;31254;51.680;5.394;2022-08-03T03:55:26;101451.66;;;19.94;79.43
45523;BME280;31254;51.680;5.394;2022-08-03T03:57:53;101457.00;;;19.95;79.75
45523;BME280;31254;51.680;5.394;2022-08-03T04:00:20;101459.97;;;19.94;79.47
45523;BME280;31254;51.680;5.394;2022-08-03T04:02:47;101452.88;;;19.84;79.79
45523;BME280;31254;51.680;5.394;2022-08-03T04:05:14;101465.88;;;19.90;79.60
45523;BME280;31254;51.680;5.394;2022-08-03T04:08:07;101458.84;;;19.88;79.92
45523;BME280;31254;51.680;5.394;2022-08-03T04:11:20;101459.91;;;19.87;79.51
45523;BME280;31254;51.680;5.394;2022-08-03T04:16:31;101454.63;;;19.92;79.71
45523;BME280;31254;51.680;5.394;2022-08-03T04:19:04;101457.38;;;19.92;79.61
45523;BME280;31254;51.680;5.394;2022-08-03T04:21:34;101458.91;;;19.95;79.26
45523;BME280;31254;51.680;5.394;2022-08-03T04:24:05;101456.59;;;19.98;79.61
45523;BME280;31254;51.680;5.394;2022-08-03T04:26:37;101457.25;;;20.00;79.44
45523;BME280;31254;51.680;5.394;2022-08-03T04:29:05;101433.16;;;19.94;79.03
45523;BME280;31254;51.680;5.394;2022-08-03T04:31:35;101448.38;;;20.05;79.31
45523;BME280;31254;51.680;5.394;2022-08-03T04:34:03;101457.41;;;20.14;78.74
45523;BME280;31254;51.680;5.394;2022-08-03T04:36:32;101452.25;;;20.11;78.81
45523;BME280;31254;51.680;5.394;2022-08-03T04:38:59;101464.25;;;20.18;78.86
45523;BME280;31254;51.680;5.394;2022-08-03T04:41:28;101454.63;;;20.14;78.64
45523;BME280;31254;51.680;5.394;2022-08-03T04:44:00;101467.56;;;20.28;78.49
45523;BME280;31254;51.680;5.394;2022-08-03T04:46:31;101473.16;;;20.35;78.23
45523;BME280;31254;51.680;5.394;2022-08-03T04:49:00;101450.00;;;20.21;78.07
45523;BME280;31254;51.680;5.394;2022-08-03T04:51:30;101473.47;;;20.46;78.01
45523;BME280;31254;51.680;5.394;2022-08-03T04:53:57;101484.78;;;20.52;77.61
45523;BME280;31254;51.680;5.394;2022-08-03T04:56:24;101481.63;;;20.55;77.34
45523;BME280;31254;51.680;5.394;2022-08-03T04:58:51;101479.50;;;20.57;77.47
45523;BME280;31254;51.680;5.394;2022-08-03T05:01:18;101481.81;;;20.75;77.23
45523;BME280;31254;51.680;5.394;2022-08-03T05:03:46;101480.09;;;21.09;75.90
45523;BME280;31254;51.680;5.394;2022-08-03T05:06:14;101484.41;;;22.75;70.51
45523;BME280;31254;51.680;5.394;2022-08-03T05:08:41;101475.72;;;24.77;64.30
45523;BME280;31254;51.680;5.394;2022-08-03T05:11:15;101474.88;;;26.30;59.47
45523;BME280;31254;51.680;5.394;2022-08-03T05:13:42;101479.81;;;27.70;55.67
45523;BME280;31254;51.680;5.394;2022-08-03T05:16:09;101486.44;;;28.89;52.87
45523;BME280;31254;51.680;5.394;2022-08-03T05:18:37;101492.06;;;29.95;50.26
45523;BME280;31254;51.680;5.394;2022-08-03T05:21:03;101489.72;;;30.73;48.34
45523;BME280;31254;51.680;5.394;2022-08-03T05:23:30;101475.25;;;30.97;48.01
45523;BME280;31254;51.680;5.394;2022-08-03T05:25:57;101484.41;;;31.78;46.34
45523;BME280;31254;51.680;5.394;2022-08-03T05:28:26;101480.03;;;32.43;44.68
45523;BME280;31254;51.680;5.394;2022-08-03T05:30:52;101488.19;;;32.91;43.71
45523;BME280;31254;51.680;5.394;2022-08-03T05:33:19;101491.81;;;33.23;43.09
45523;BME280;31254;51.680;5.394;2022-08-03T05:35:45;101488.53;;;33.65;42.00
45523;BME280;31254;51.680;5.394;2022-08-03T05:38:31;101494.44;;;34.24;40.75
45523;BME280;31254;51.680;5.394;2022-08-03T05:41:01;101499.03;;;33.55;42.27
45523;BME280;31254;51.680;5.394;2022-08-03T05:43:48;101485.19;;;34.08;40.68
45523;BME280;31254;51.680;5.394;2022-08-03T05:46:14;101490.72;;;34.63;39.31
45523;BME280;31254;51.680;5.394;2022-08-03T05:48:44;101482.22;;;35.22;37.94
45523;BME280;31254;51.680;5.394;2022-08-03T05:51:10;101492.13;;;35.92;36.95
45523;BME280;31254;51.680;5.394;2022-08-03T05:53:41;101491.72;;;36.36;36.44
45523;BME280;31254;51.680;5.394;2022-08-03T05:56:09;101468.41;;;36.72;34.73
45523;BME280;31254;51.680;5.394;2022-08-03T05:58:45;101492.34;;;36.99;34.86
45523;BME280;31254;51.680;5.394;2022-08-03T06:01:15;101492.19;;;37.23;34.64
45523;BME280;31254;51.680;5.394;2022-08-03T06:03:43;101486.38;;;37.70;33.34
45523;BME280;31254;51.680;5.394;2022-08-03T06:06:10;101493.09;;;37.60;33.41
45523;BME280;31254;51.680;5.394;2022-08-03T06:08:40;101487.22;;;37.29;33.99
45523;BME280;31254;51.680;5.394;2022-08-03T06:11:07;101489.22;;;37.28;33.39
45523;BME280;31254;51.680;5.394;2022-08-03T06:13:39;101482.66;;;37.83;32.72
45523;BME280;31254;51.680;5.394;2022-08-03T06:16:06;101483.94;;;38.14;31.78
45523;BME280;31254;51.680;5.394;2022-08-03T06:18:34;101491.22;;;38.06;31.94
45523;BME280;31254;51.680;5.394;2022-08-03T06:21:00;101469.44;;;37.37;32.75
45523;BME280;31254;51.680;5.394;2022-08-03T06:23:41;101486.69;;;37.68;32.38
45523;BME280;31254;51.680;5.394;2022-08-03T06:26:18;101490.91;;;38.21;31.22
45523;BME280;31254;51.680;5.394;2022-08-03T06:28:45;101507.06;;;38.57;30.66
45523;BME280;31254;51.680;5.394;2022-08-03T06:31:20;101504.44;;;38.92;30.24
45523;BME280;31254;51.680;5.394;2022-08-03T06:33:58;101510.69;;;39.26;29.55
45523;BME280;31254;51.680;5.394;2022-08-03T06:36:47;101498.50;;;39.43;29.15
45523;BME280;31254;51.680;5.394;2022-08-03T06:39:18;101503.09;;;39.61;29.17
45523;BME280;31254;51.680;5.394;2022-08-03T06:41:44;101499.56;;;39.64;28.61
45523;BME280;31254;51.680;5.394;2022-08-03T06:44:11;101484.66;;;39.67;28.39
45523;BME280;31254;51.680;5.394;2022-08-03T06:46:38;101507.03;;;40.09;27.98
45523;BME280;31254;51.680;5.394;2022-08-03T06:49:08;101501.81;;;40.37;27.57
45523;BME280;31254;51.680;5.394;2022-08-03T06:51:35;101500.00;;;40.24;27.62
45523;BME280;31254;51.680;5.394;2022-08-03T06:54:21;101511.75;;;40.49;27.58
45523;BME280;31254;51.680;5.394;2022-08-03T06:56:49;101502.97;;;40.71;26.83
45523;BME280;31254;51.680;5.394;2022-08-03T06:59:16;101507.16;;;40.83;26.76
45523;BME280;31254;51.680;5.394;2022-08-03T07:02:05;101511.78;;;41.14;26.55
45523;BME280;31254;51.680;5.394;2022-08-03T07:04:34;101510.28;;;41.07;26.67
45523;BME280;31254;51.680;5.394;2022-08-03T07:07:01;101520.00;;;41.15;26.31
45523;BME280;31254;51.680;5.394;2022-08-03T07:09:27;101512.25;;;41.16;26.27
45523;BME280;31254;51.680;5.394;2022-08-03T07:11:54;101505.25;;;41.43;25.78
45523;BME280;31254;51.680;5.394;2022-08-03T07:14:20;101507.19;;;41.30;26.02
45523;BME280;31254;51.680;5.394;2022-08-03T07:16:47;101525.97;;;41.40;25.86
45523;BME280;31254;51.680;5.394;2022-08-03T07:19:16;101520.81;;;41.24;26.23
45523;BME280;31254;51.680;5.394;2022-08-03T07:21:42;101517.97;;;41.16;26.30
45523;BME280;31254;51.680;5.394;2022-08-03T07:24:12;101521.28;;;41.35;25.65
45523;BME280;31254;51.680;5.394;2022-08-03T07:26:39;101518.53;;;41.47;25.63
45523;BME280;31254;51.680;5.394;2022-08-03T07:29:06;101529.31;;;41.51;25.34
45523;BME280;31254;51.680;5.394;2022-08-03T07:31:40;101527.66;;;41.79;25.24
45523;BME280;31254;51.680;5.394;2022-08-03T07:34:07;101519.97;;;42.13;24.71
45523;BME280;31254;51.680;5.394;2022-08-03T07:36:34;101516.13;;;42.09;25.08
45523;BME280;31254;51.680;5.394;2022-08-03T07:39:00;101508.13;;;41.73;24.96
45523;BME280;31254;51.680;5.394;2022-08-03T07:41:41;101521.03;;;41.88;25.00
45523;BME280;31254;51.680;5.394;2022-08-03T07:44:08;101525.53;;;42.10;24.74
45523;BME280;31254;51.680;5.394;2022-08-03T07:46:40;101526.09;;;42.03;24.86
45523;BME280;31254;51.680;5.394;2022-08-03T07:49:09;101524.97;;;41.95;24.74
45523;BME280;31254;51.680;5.394;2022-08-03T07:51:36;101520.84;;;41.84;24.68
45523;BME280;31254;51.680;5.394;2022-08-03T07:54:03;101523.31;;;41.64;24.73
45523;BME280;31254;51.680;5.394;2022-08-03T07:56:33;101517.38;;;41.78;24.32
45523;BME280;31254;51.680;5.394;2022-08-03T07:58:59;101516.38;;;41.74;24.50
45523;BME280;31254;51.680;5.394;2022-08-03T08:01:28;101515.81;;;41.51;24.50
45523;BME280;31254;51.680;5.394;2022-08-03T08:03:55;101512.66;;;40.97;25.43
45523;BME280;31254;51.680;5.394;2022-08-03T08:06:24;101511.72;;;41.22;24.68
45523;BME280;31254;51.680;5.394;2022-08-03T08:08:51;101519.13;;;41.62;24.48
45523;BME280;31254;51.680;5.394;2022-08-03T08:11:18;101516.19;;;41.79;24.19
45523;BME280;31254;51.680;5.394;2022-08-03T08:13:47;101507.53;;;41.88;24.51
45523;BME280;31254;51.680;5.394;2022-08-03T08:16:14;101508.69;;;42.17;24.02
45523;BME280;31254;51.680;5.394;2022-08-03T08:18:40;101518.34;;;42.46;23.73
45523;BME280;31254;51.680;5.394;2022-08-03T08:21:09;101509.72;;;42.33;23.88
45523;BME280;31254;51.680;5.394;2022-08-03T08:23:36;101517.72;;;41.98;24.04
45523;BME280;31254;51.680;5.394;2022-08-03T08:26:09;101477.19;;;41.87;24.10
45523;BME280;31254;51.680;5.394;2022-08-03T08:28:36;101509.16;;;42.19;23.96
45523;BME280;31254;51.680;5.394;2022-08-03T08:31:03;101518.78;;;42.35;23.94
45523;BME280;31254;51.680;5.394;2022-08-03T08:33:30;101483.50;;;42.23;23.36
45523;BME280;31254;51.680;5.394;2022-08-03T08:36:17;101508.91;;;42.45;23.67
45523;BME280;31254;51.680;5.394;2022-08-03T08:38:44;101513.03;;;42.35;23.81
45523;BME280;31254;51.680;5.394;2022-08-03T08:41:13;101507.34;;;42.14;23.66
45523;BME280;31254;51.680;5.394;2022-08-03T08:43:40;101498.53;;;42.19;24.06
45523;BME280;31254;51.680;5.394;2022-08-03T08:46:13;101505.25;;;42.24;23.84
45523;BME280;31254;51.680;5.394;2022-08-03T08:48:49;101511.53;;;42.17;23.88
45523;BME280;31254;51.680;5.394;2022-08-03T08:51:18;101504.75;;;42.00;23.99
45523;BME280;31254;51.680;5.394;2022-08-03T08:53:50;101501.16;;;42.03;24.11
45523;BME280;31254;51.680;5.394;2022-08-03T08:56:19;101505.59;;;41.71;24.17
45523;BME280;31254;51.680;5.394;2022-08-03T08:58:51;101502.94;;;41.66;24.07
45523;BME280;31254;51.680;5.394;2022-08-03T09:01:18;101506.59;;;41.75;24.04
45523;BME280;31254;51.680;5.394;2022-08-03T09:03:48;101513.16;;;41.76;24.22
45523;BME280;31254;51.680;5.394;2022-08-03T09:06:15;101505.16;;;41.60;24.67
45523;BME280;31254;51.680;5.394;2022-08-03T09:08:42;101511.16;;;41.67;24.54
45523;BME280;31254;51.680;5.394;2022-08-03T09:11:11;101508.97;;;41.43;24.31
45523;BME280;31254;51.680;5.394;2022-08-03T09:13:38;101496.78;;;41.17;25.02
45523;BME280;31254;51.680;5.394;2022-08-03T09:16:19;101518.19;;;41.10;24.98
45523;BME280;31254;51.680;5.394;2022-08-03T09:18:49;101518.66;;;40.48;25.05
45523;BME280;31254;51.680;5.394;2022-08-03T09:21:27;101516.63;;;40.05;26.03
45523;BME280;31254;51.680;5.394;2022-08-03T09:24:01;101523.94;;;39.79;26.36
45523;BME280;31254;51.680;5.394;2022-08-03T09:26:32;101518.81;;;39.41;26.14
45523;BME280;31254;51.680;5.394;2022-08-03T09:29:09;101511.03;;;39.33;26.67
45523;BME280;31254;51.680;5.394;2022-08-03T09:31:46;101510.69;;;38.94;27.23
45523;BME280;31254;51.680;5.394;2022-08-03T09:34:16;101509.94;;;38.80;26.99
45523;BME280;31254;51.680;5.394;2022-08-03T09:36:53;101510.88;;;38.67;27.71
45523;BME280;31254;51.680;5.394;2022-08-03T09:39:25;101512.69;;;38.26;27.98
45523;BME280;31254;51.680;5.394;2022-08-03T09:44:40;101508.03;;;37.66;28.50
45523;BME280;31254;51.680;5.394;2022-08-03T09:47:11;101511.88;;;37.47;29.13
45523;BME280;31254;51.680;5.394;2022-08-03T09:49:56;101503.63;;;37.18;29.18
45523;BME280;31254;51.680;5.394;2022-08-03T09:52:38;101509.50;;;36.94;29.75
45523;BME280;31254;51.680;5.394;2022-08-03T09:55:19;101495.81;;;36.96;29.86
45523;BME280;31254;51.680;5.394;2022-08-03T09:58:06;101500.34;;;36.97;29.68
45523;BME280;31254;51.680;5.394;2022-08-03T10:03:21;101503.28;;;36.92;29.88
45523;BME280;31254;51.680;5.394;2022-08-03T10:05:48;101477.63;;;36.31;30.44
45523;BME280;31254;51.680;5.394;2022-08-03T10:08:16;101510.38;;;36.23;30.47
45523;BME280;31254;51.680;5.394;2022-08-03T10:10:47;101503.00;;;36.03;30.92
45523;BME280;31254;51.680;5.394;2022-08-03T10:13:18;101509.91;;;35.97;30.90
45523;BME280;31254;51.680;5.394;2022-08-03T10:15:45;101513.88;;;35.77;30.51
45523;BME280;31254;51.680;5.394;2022-08-03T10:18:34;101513.34;;;35.75;31.27
45523;BME280;31254;51.680;5.394;2022-08-03T10:21:07;101500.13;;;35.65;31.31
45523;BME280;31254;51.680;5.394;2022-08-03T10:23:37;101492.25;;;35.57;30.99
45523;BME280;31254;51.680;5.394;2022-08-03T10:26:06;101509.78;;;35.64;31.66
45523;BME280;31254;51.680;5.394;2022-08-03T10:28:38;101502.84;;;35.51;30.98
45523;BME280;31254;51.680;5.394;2022-08-03T10:31:12;101501.34;;;35.35;31.33
45523;BME280;31254;51.680;5.394;2022-08-03T10:33:43;101504.56;;;35.28;31.54
45523;BME280;31254;51.680;5.394;2022-08-03T10:36:19;101503.47;;;35.24;32.00
45523;BME280;31254;51.680;5.394;2022-08-03T10:38:50;101494.28;;;35.32;32.06
45523;BME280;31254;51.680;5.394;2022-08-03T10:41:22;101491.66;;;35.41;32.20
45523;BME280;31254;51.680;5.394;2022-08-03T10:46:32;101490.75;;;35.16;31.43
45523;BME280;31254;51.680;5.394;2022-08-03T10:49:00;101479.47;;;35.11;31.49
45523;BME280;31254;51.680;5.394;2022-08-03T10:51:27;101487.09;;;35.16;31.43
45523;BME280;31254;51.680;5.394;2022-08-03T10:53:58;101445.38;;;34.97;31.36
45523;BME280;31254;51.680;5.394;2022-08-03T11:02:13;101454.19;;;35.44;31.18
45523;BME280;31254;51.680;5.394;2022-08-03T11:04:43;101465.88;;;35.38;31.23
45523;BME280;31254;51.680;5.394;2022-08-03T11:09:53;101466.00;;;35.27;31.11
45523;BME280;31254;51.680;5.394;2022-08-03T11:15:06;101461.78;;;35.25;31.19
45523;BME280;31254;51.680;5.394;2022-08-03T11:17:34;101460.16;;;35.43;30.97
45523;BME280;31254;51.680;5.394;2022-08-03T11:26:31;101455.03;;;35.64;30.52
45523;BME280;31254;51.680;5.394;2022-08-03T11:29:34;101462.00;;;35.72;30.36
45523;BME280;31254;51.680;5.394;2022-08-03T11:32:01;101464.13;;;35.85;30.14
45523;BME280;31254;51.680;5.394;2022-08-03T11:34:30;101439.38;;;35.66;30.50
45523;BME280;31254;51.680;5.394;2022-08-03T11:37:22;101459.69;;;35.98;30.27
45523;BME280;31254;51.680;5.394;2022-08-03T11:39:56;101451.84;;;35.90;30.04
45523;BME280;31254;51.680;5.394;2022-08-03T11:44:50;101456.69;;;35.89;29.84
45523;BME280;31254;51.680;5.394;2022-08-03T11:47:21;101461.66;;;35.97;30.08
45523;BME280;31254;51.680;5.394;2022-08-03T11:49:50;101462.53;;;35.98;29.38
45523;BME280;31254;51.680;5.394;2022-08-03T11:52:17;101458.00;;;35.54;29.88
45523;BME280;31254;51.680;5.394;2022-08-03T11:54:55;101453.44;;;35.96;30.09
45523;BME280;31254;51.680;5.394;2022-08-03T11:57:29;101461.50;;;36.08;29.75
45523;BME280;31254;51.680;5.394;2022-08-03T12:00:37;101462.16;;;36.18;29.81
45523;BME280;31254;51.680;5.394;2022-08-03T12:03:09;101456.38;;;36.29;29.47
45523;BME280;31254;51.680;5.394;2022-08-03T12:05:41;101467.09;;;36.32;29.50
45523;BME280;31254;51.680;5.394;2022-08-03T12:08:38;101457.50;;;36.09;29.65
45523;BME280;31254;51.680;5.394;2022-08-03T12:11:07;101449.78;;;35.76;29.90
45523;BME280;31254;51.680;5.394;2022-08-03T12:13:46;101459.16;;;35.72;30.11
45523;BME280;31254;51.680;5.394;2022-08-03T12:16:33;101455.53;;;35.90;30.01
45523;BME280;31254;51.680;5.394;2022-08-03T12:19:02;101460.44;;;36.03;29.69
45523;BME280;31254;51.680;5.394;2022-08-03T12:21:31;101462.25;;;35.94;30.15
45523;BME280;31254;51.680;5.394;2022-08-03T12:24:00;101451.13;;;35.60;30.03
45523;BME280;31254;51.680;5.394;2022-08-03T12:26:28;101446.13;;;35.51;30.26
45523;BME280;31254;51.680;5.394;2022-08-03T12:28:58;101438.22;;;35.48;30.22
45523;BME280;31254;51.680;5.394;2022-08-03T12:31:24;101441.84;;;35.54;30.90
45523;BME280;31254;51.680;5.394;2022-08-03T12:34:05;101427.50;;;35.64;30.22
45523;BME280;31254;51.680;5.394;2022-08-03T12:36:36;101447.69;;;36.01;30.46
45523;BME280;31254;51.680;5.394;2022-08-03T12:39:05;101450.06;;;36.13;30.33
45523;BME280;31254;51.680;5.394;2022-08-03T12:41:34;101434.34;;;36.01;29.68
45523;BME280;31254;51.680;5.394;2022-08-03T12:44:07;101441.00;;;35.73;30.45
45523;BME280;31254;51.680;5.394;2022-08-03T12:46:39;101450.34;;;35.73;30.67
45523;BME280;31254;51.680;5.394;2022-08-03T12:49:14;101456.34;;;35.53;30.75
45523;BME280;31254;51.680;5.394;2022-08-03T12:54:28;101441.44;;;35.42;30.73
45523;BME280;31254;51.680;5.394;2022-08-03T12:57:08;101451.44;;;35.10;31.01
45523;BME280;31254;51.680;5.394;2022-08-03T12:59:43;101445.69;;;35.15;31.22
45523;BME280;31254;51.680;5.394;2022-08-03T13:02:22;101442.03;;;35.14;31.34
45523;BME280;31254;51.680;5.394;2022-08-03T13:04:51;101450.16;;;34.97;31.67
45523;BME280;31254;51.680;5.394;2022-08-03T13:07:19;101443.78;;;34.86;31.77
45523;BME280;31254;51.680;5.394;2022-08-03T13:09:54;101448.88;;;34.84;31.70
45523;BME280;31254;51.680;5.394;2022-08-03T13:12:26;101450.81;;;34.89;31.94
45523;BME280;31254;51.680;5.394;2022-08-03T13:14:59;101436.56;;;34.99;31.96
45523;BME280;31254;51.680;5.394;2022-08-03T13:17:27;101449.81;;;35.04;31.91
45523;BME280;31254;51.680;5.394;2022-08-03T13:19:53;101440.00;;;35.20;32.42
45523;BME280;31254;51.680;5.394;2022-08-03T13:22:23;101434.97;;;35.36;32.29
45523;BME280;31254;51.680;5.394;2022-08-03T13:24:51;101436.91;;;35.41;32.12
45523;BME280;31254;51.680;5.394;2022-08-03T13:27:18;101438.91;;;35.16;33.22
45523;BME280;31254;51.680;5.394;2022-08-03T13:30:07;101433.53;;;35.39;32.30
45523;BME280;31254;51.680;5.394;2022-08-03T13:32:34;101428.69;;;35.39;32.31
45523;BME280;31254;51.680;5.394;2022-08-03T13:35:04;101423.66;;;35.12;32.73
45523;BME280;31254;51.680;5.394;2022-08-03T13:37:31;101435.97;;;35.02;33.31
45523;BME280;31254;51.680;5.394;2022-08-03T13:39:58;101440.22;;;35.00;33.24
45523;BME280;31254;51.680;5.394;2022-08-03T13:42:32;101438.34;;;35.14;32.94
45523;BME280;31254;51.680;5.394;2022-08-03T13:44:59;101438.25;;;35.24;32.76
45523;BME280;31254;51.680;5.394;2022-08-03T13:47:26;101438.81;;;35.21;32.62
45523;BME280;31254;51.680;5.394;2022-08-03T13:49:55;101436.81;;;35.27;32.75
45523;BME280;31254;51.680;5.394;2022-08-03T13:52:34;101440.13;;;35.34;32.98
45523;BME280;31254;51.680;5.394;2022-08-03T13:55:04;101437.13;;;35.25;32.60
45523;BME280;31254;51.680;5.394;2022-08-03T13:57:30;101444.50;;;35.21;32.85